Time;durP1;ratioP1;P1;durP2;ratioP2;P2;SDS_P1;SDS_P2;PMS_P1;PMS_P2;Temp;Humidity;BMP_temperature;BMP_pressure;BME280_temperature;BME280_humidity;BME280_pressure;Samples;Min_cycle;Max_cycle;Signal;HPM_P1;HPM_P2
2023/01/10 00:01:15;;;;;;;1.65;0.40;;;10.60;58.90;;;;;;6088034;29;20110;-76
2023/01/10 00:04:16;;;;;;;6.60;0.90;;;10.60;58.90;;;;;;6104774;29;20075;-76
2023/01/10 00:07:17;;;;;;;0.50;0.38;;;10.60;58.90;;;;;;6082506;29;20123;-76
2023/01/10 00:10:18;;;;;;;1.98;0.35;;;10.60;58.80;;;;;;6064086;29;20053;-76
2023/01/10 00:13:22;;;;;;;0.40;0.32;;;10.60;58.90;;;;;;6079660;29;20040;-77
2023/01/10 00:16:23;;;;;;;1.08;0.32;;;10.60;58.90;;;;;;6058493;29;20049;-75
2023/01/10 00:19:24;;;;;;;5.88;0.32;;;10.60;58.90;;;;;;6067549;29;20056;-75
2023/01/10 00:22:25;;;;;;;0.45;0.30;;;10.70;58.60;;;;;;6066892;29;20055;-75
2023/01/10 00:25:27;;;;;;;0.68;0.40;;;10.70;58.40;;;;;;6050624;29;20056;-76
2023/01/10 00:28:33;;;;;;;1.88;0.45;;;10.80;58.40;;;;;;6073426;29;20055;-74
2023/01/10 00:31:33;;;;;;;1.70;0.35;;;10.80;58.30;;;;;;6071665;29;20045;-76
2023/01/10 00:34:35;;;;;;;0.30;0.20;;;10.80;58.20;;;;;;6093605;29;20052;-75
2023/01/10 00:37:37;;;;;;;1.77;0.52;;;10.90;58.20;;;;;;6093403;29;20055;-75
2023/01/10 00:40:39;;;;;;;0.50;0.30;;;10.80;58.10;;;;;;6083113;29;20107;-76
2023/01/10 00:43:58;;;;;;;5.55;0.50;;;10.80;57.90;;;;;;6065454;29;20128;-76
2023/01/10 00:46:59;;;;;;;5.30;0.50;;;10.80;57.90;;;;;;6062662;29;20045;-76
2023/01/10 00:49:59;;;;;;;0.95;0.68;;;10.90;58.00;;;;;;6061429;29;20045;-75
2023/01/10 00:53:00;;;;;;;1.25;0.55;;;10.90;58.10;;;;;;6056222;29;20041;-76
2023/01/10 00:56:01;;;;;;;2.90;0.70;;;10.90;58.10;;;;;;6041680;29;20044;-76
2023/01/10 00:59:03;;;;;;;2.58;0.70;;;10.80;58.20;;;;;;6076599;29;20131;-76
2023/01/10 01:02:04;;;;;;;4.05;0.55;;;10.80;59.00;;;;;;6060304;29;20056;-76
2023/01/10 01:05:05;;;;;;;2.22;1.15;;;10.70;58.70;;;;;;6061989;29;20080;-76
2023/01/10 01:08:06;;;;;;;1.60;0.60;;;10.60;58.90;;;;;;6062905;29;20055;-78
2023/01/10 01:11:07;;;;;;;1.42;0.50;;;10.50;59.20;;;;;;6080530;29;20053;-76
2023/01/10 01:14:07;;;;;;;1.77;0.57;;;10.50;59.40;;;;;;6064047;29;20049;-76
2023/01/10 01:17:09;;;;;;;0.88;0.57;;;10.50;59.60;;;;;;6084548;29;20309;-76
2023/01/10 01:20:10;;;;;;;0.68;0.45;;;10.50;59.80;;;;;;6115285;29;20121;-76
2023/01/10 01:23:12;;;;;;;0.88;0.40;;;10.40;59.90;;;;;;6089841;29;20107;-75
2023/01/10 01:26:13;;;;;;;6.97;1.23;;;10.40;60.10;;;;;;6106362;29;20528;-75
2023/01/10 01:29:14;;;;;;;3.67;0.65;;;10.30;60.30;;;;;;6090761;29;20083;-76
2023/01/10 01:32:15;;;;;;;1.45;0.60;;;10.30;60.50;;;;;;6102734;29;20044;-75
2023/01/10 01:35:16;;;;;;;1.70;0.65;;;10.20;60.60;;;;;;6086972;29;21593;-75
2023/01/10 01:38:17;;;;;;;2.30;0.65;;;10.20;60.80;;;;;;6085559;29;20043;-76
2023/01/10 01:44:41;;;;;;;3.83;0.50;;;10.10;60.90;;;;;;6101059;29;20079;-76
2023/01/10 01:48:04;;;;;;;3.58;0.55;;;10.10;61.10;;;;;;6084665;29;20044;-76
2023/01/10 01:51:06;;;;;;;1.50;0.55;;;10.10;61.20;;;;;;6085973;29;20545;-75
2023/01/10 01:54:10;;;;;;;1.63;0.90;;;10.10;61.40;;;;;;6084081;29;20044;-75
2023/01/10 01:57:18;;;;;;;0.40;0.25;;;10.00;61.40;;;;;;6087092;29;20048;-76
2023/01/10 02:00:19;;;;;;;0.95;0.40;;;10.10;61.50;;;;;;6083071;29;20054;-75
2023/01/10 02:03:19;;;;;;;1.75;0.60;;;10.10;61.50;;;;;;6083990;29;20046;-76
2023/01/10 02:06:22;;;;;;;0.20;0.20;;;10.10;61.50;;;;;;6096164;29;20045;-76
2023/01/10 02:09:49;;;;;;;2.95;0.63;;;10.10;61.40;;;;;;6101503;29;20082;-75
2023/01/10 02:12:52;;;;;;;0.68;0.40;;;10.10;61.30;;;;;;5990210;29;20459;-75
2023/01/10 02:15:53;;;;;;;2.53;0.57;;;10.20;61.30;;;;;;5990162;29;20109;-75
2023/01/10 02:18:54;;;;;;;7.68;0.47;;;10.20;61.00;;;;;;5989656;29;20591;-75
2023/01/10 02:22:30;;;;;;;3.15;0.43;;;10.30;60.90;;;;;;6023285;29;20190;-74
2023/01/10 02:25:40;;;;;;;0.90;0.38;;;10.30;60.70;;;;;;5991599;29;20077;-75
2023/01/10 02:28:55;;;;;;;4.03;0.65;;;10.30;60.40;;;;;;5985629;29;20484;-75
2023/01/10 02:32:24;;;;;;;7.07;0.90;;;10.30;59.90;;;;;;6005033;29;20042;-76
2023/01/10 02:35:55;;;;;;;2.22;0.57;;;10.40;59.70;;;;;;5991449;29;20411;-75
2023/01/10 02:39:25;;;;;;;2.28;0.63;;;10.40;59.60;;;;;;5999512;29;20085;-75
2023/01/10 02:42:35;;;;;;;6.32;0.63;;;10.50;59.40;;;;;;5987555;29;20483;-76
2023/01/10 02:45:46;;;;;;;7.63;0.77;;;10.50;59.20;;;;;;5983888;29;20046;-75
2023/01/10 02:48:46;;;;;;;0.77;0.60;;;10.50;59.10;;;;;;6014254;29;20044;-75
2023/01/10 02:51:47;;;;;;;7.10;0.38;;;10.50;59.20;;;;;;6101842;29;20489;-75
2023/01/10 02:54:50;;;;;;;2.72;0.70;;;10.50;59.30;;;;;;6106292;29;20376;-76
2023/01/10 02:58:17;;;;;;;0.88;0.47;;;10.40;59.40;;;;;;6073233;29;20501;-76
2023/01/10 03:01:38;;;;;;;0.30;0.30;;;10.40;59.60;;;;;;6085272;29;20335;-75
2023/01/10 03:05:10;;;;;;;0.95;0.68;;;10.30;59.50;;;;;;6071430;29;20472;-75
2023/01/10 03:08:30;;;;;;;9.40;0.40;;;10.30;59.50;;;;;;6080089;29;20051;-76
2023/01/10 03:11:40;;;;;;;0.63;0.30;;;10.20;59.50;;;;;;6094866;29;20040;-76
2023/01/10 03:14:42;;;;;;;1.02;0.25;;;10.20;59.60;;;;;;6081574;29;20376;-76
2023/01/10 03:17:48;;;;;;;2.80;0.45;;;10.10;59.60;;;;;;6085733;29;20040;-76
2023/01/10 03:20:51;;;;;;;2.42;0.57;;;10.10;59.70;;;;;;6084985;29;20127;-76
2023/01/10 03:23:58;;;;;;;0.20;0.20;;;10.10;59.70;;;;;;6102662;29;20048;-76
2023/01/10 03:27:05;;;;;;;1.17;0.50;;;10.10;59.80;;;;;;6100843;29;20046;-77
2023/01/10 03:30:20;;;;;;;2.00;0.40;;;10.10;59.80;;;;;;6101669;29;20055;-76
2023/01/10 03:33:26;;;;;;;4.32;0.52;;;10.20;60.00;;;;;;6102173;29;20044;-75
2023/01/10 03:36:39;;;;;;;0.35;0.30;;;10.20;59.90;;;;;;6089201;29;20644;-76
2023/01/10 03:40:06;;;;;;;1.25;0.45;;;10.30;59.90;;;;;;6084556;29;20036;-76
2023/01/10 03:46:59;;;;;;;1.25;0.60;;;10.30;59.90;;;;;;6085807;29;20043;-75
2023/01/10 03:50:19;;;;;;;1.23;0.47;;;10.20;59.90;;;;;;6104417;29;20043;-75
2023/01/10 03:53:20;;;;;;;2.60;0.93;;;10.20;60.00;;;;;;6053682;29;20103;-75
2023/01/10 03:56:22;;;;;;;0.57;0.38;;;10.20;60.20;;;;;;6104018;29;20441;-75
2023/01/10 03:59:27;;;;;;;1.85;0.80;;;10.20;60.20;;;;;;6101676;29;20123;-75
2023/01/10 04:02:30;;;;;;;1.17;0.63;;;10.20;60.40;;;;;;6111824;29;20044;-76
2023/01/10 04:05:31;;;;;;;3.42;1.40;;;10.30;60.50;;;;;;6098497;29;20047;-74
2023/01/10 04:08:31;;;;;;;5.88;1.02;;;10.30;60.50;;;;;;6118578;29;20040;-74
2023/01/10 04:11:33;;;;;;;1.73;0.60;;;10.30;60.60;;;;;;6119806;29;20044;-74
2023/01/10 04:14:33;;;;;;;0.88;0.52;;;10.30;60.60;;;;;;6090654;29;20040;-75
2023/01/10 04:17:35;;;;;;;2.38;0.50;;;10.20;60.70;;;;;;6067832;29;20044;-76
2023/01/10 04:20:36;;;;;;;0.98;0.80;;;10.30;60.60;;;;;;6103471;29;20107;-75
2023/01/10 04:23:37;;;;;;;2.53;0.65;;;10.20;60.70;;;;;;6087115;29;20473;-76
2023/01/10 04:26:38;;;;;;;0.85;0.60;;;10.20;60.80;;;;;;6103760;29;20051;-76
2023/01/10 04:29:39;;;;;;;2.17;0.47;;;10.20;60.80;;;;;;6087155;29;20044;-75
2023/01/10 04:32:39;;;;;;;2.53;0.70;;;10.20;60.90;;;;;;6086476;29;20037;-77
2023/01/10 04:35:47;;;;;;;1.58;0.70;;;10.20;61.00;;;;;;6086520;29;20032;-76
2023/01/10 04:38:47;;;;;;;0.30;0.30;;;10.10;61.00;;;;;;6093324;29;20055;-76
2023/01/10 04:41:48;;;;;;;2.05;0.50;;;10.10;61.10;;;;;;6103420;29;20032;-76
2023/01/10 04:44:49;;;;;;;1.58;0.50;;;10.10;61.20;;;;;;6102229;29;20044;-76
2023/01/10 04:47:50;;;;;;;1.05;0.70;;;10.00;61.30;;;;;;6096470;29;20036;-76
2023/01/10 04:50:52;;;;;;;1.10;0.30;;;10.00;61.70;;;;;;6086134;29;20048;-76
2023/01/10 04:53:54;;;;;;;1.48;0.50;;;10.00;61.90;;;;;;6100978;29;20037;-76
2023/01/10 04:56:55;;;;;;;5.50;0.93;;;10.00;62.10;;;;;;6102654;29;20176;-76
2023/01/10 04:59:55;;;;;;;0.47;0.45;;;9.90;62.20;;;;;;6100017;29;20407;-76
2023/01/10 05:02:57;;;;;;;1.35;0.40;;;9.90;62.20;;;;;;6083370;29;20039;-76
2023/01/10 05:05:58;;;;;;;1.67;1.13;;;9.90;62.40;;;;;;6085437;29;20044;-76
2023/01/10 05:08:59;;;;;;;0.60;0.60;;;9.90;62.40;;;;;;6086533;29;20408;-76
2023/01/10 05:11:59;;;;;;;0.70;0.60;;;9.90;62.40;;;;;;6087048;29;20060;-76
2023/01/10 05:15:00;;;;;;;2.00;0.82;;;9.90;62.40;;;;;;6083751;29;20063;-75
2023/01/10 05:18:01;;;;;;;3.40;0.70;;;9.90;62.50;;;;;;6079187;29;20037;-76
2023/01/10 05:21:08;;;;;;;2.72;0.77;;;9.90;62.50;;;;;;6091155;29;20044;-76
2023/01/10 05:24:09;;;;;;;5.18;1.00;;;9.90;62.60;;;;;;6102808;29;20066;-76
2023/01/10 05:27:10;;;;;;;1.65;0.52;;;10.00;62.60;;;;;;6102411;29;20131;-76
2023/01/10 05:30:12;;;;;;;0.30;0.30;;;10.00;62.50;;;;;;6089094;29;20052;-76
2023/01/10 05:33:13;;;;;;;1.13;0.65;;;10.10;62.70;;;;;;6089736;29;20469;-76
2023/01/10 05:36:13;;;;;;;3.72;0.40;;;10.10;62.30;;;;;;6099318;29;20107;-76
2023/01/10 17:37:55;;;;;;;4.22;1.95;;;13.20;47.00;;;;;;6030497;27;20060;-74
2023/01/10 17:41:00;;;;;;;4.72;2.25;;;13.30;47.20;;;;;;6112957;29;20080;-74
2023/01/10 17:44:01;;;;;;;3.20;1.73;;;13.20;47.20;;;;;;6101807;29;20050;-75
2023/01/10 17:47:02;;;;;;;6.10;2.35;;;13.20;47.20;;;;;;6086281;29;20464;-74
2023/01/10 17:50:03;;;;;;;6.57;3.15;;;13.20;47.30;;;;;;6080084;29;20147;-75
2023/01/10 17:53:05;;;;;;;3.13;1.50;;;13.20;47.40;;;;;;6099108;29;20106;-74
2023/01/10 17:56:07;;;;;;;4.97;2.10;;;13.20;47.50;;;;;;6115648;29;20536;-75
2023/01/10 17:59:07;;;;;;;17.40;3.72;;;13.20;47.60;;;;;;6075021;29;20044;-76
2023/01/10 18:02:17;;;;;;;7.38;2.17;;;13.20;47.70;;;;;;6090263;29;20099;-76
2023/01/10 18:05:17;;;;;;;6.15;1.95;;;13.20;47.90;;;;;;6078485;29;20047;-76
2023/01/10 18:08:19;;;;;;;6.78;2.78;;;13.10;47.90;;;;;;6091764;29;20040;-73
2023/01/10 18:11:23;;;;;;;7.85;2.47;;;13.10;48.00;;;;;;6106392;29;20067;-75
2023/01/10 18:14:36;;;;;;;3.78;1.83;;;13.10;48.00;;;;;;6098789;29;20084;-74
2023/01/10 18:17:37;;;;;;;5.93;2.03;;;13.00;48.10;;;;;;6103784;29;20174;-74
2023/01/10 18:20:43;;;;;;;11.10;4.97;;;13.10;48.20;;;;;;6099051;29;20118;-74
2023/01/10 18:23:45;;;;;;;5.82;2.80;;;13.10;48.30;;;;;;6101364;29;20067;-73
2023/01/10 18:26:46;;;;;;;5.03;2.10;;;13.10;48.40;;;;;;6081421;29;20040;-73
2023/01/10 18:29:48;;;;;;;8.70;3.45;;;13.10;48.40;;;;;;6083539;29;20046;-74
2023/01/10 18:32:51;;;;;;;13.45;3.90;;;13.10;48.40;;;;;;6100191;29;20175;-75
2023/01/10 18:35:52;;;;;;;11.27;3.95;;;13.10;48.40;;;;;;6082530;29;20388;-75
2023/01/10 18:38:53;;;;;;;10.60;3.00;;;13.20;48.40;;;;;;6085349;29;20043;-76
2023/01/10 18:41:55;;;;;;;5.63;2.38;;;13.20;48.40;;;;;;6097499;29;20425;-76
2023/01/10 18:44:56;;;;;;;25.60;4.80;;;13.20;48.40;;;;;;6064193;29;20048;-77
2023/01/10 18:47:58;;;;;;;23.50;6.53;;;13.20;48.50;;;;;;6082948;29;20063;-76
2023/01/10 18:51:00;;;;;;;16.90;6.65;;;13.20;48.60;;;;;;6097580;29;20054;-78
2023/01/10 18:54:01;;;;;;;18.52;6.18;;;13.20;48.60;;;;;;6067005;29;20040;-76
2023/01/10 18:57:02;;;;;;;11.57;4.88;;;13.30;48.70;;;;;;6097147;29;20037;-76
2023/01/10 19:00:04;;;;;;;6.65;2.80;;;13.30;48.70;;;;;;6055218;29;20096;-77
2023/01/10 19:03:05;;;;;;;9.13;3.88;;;13.30;48.80;;;;;;6098107;29;20060;-77
2023/01/10 19:06:09;;;;;;;5.88;2.50;;;13.30;48.70;;;;;;6079990;29;20174;-76
2023/01/10 19:09:10;;;;;;;13.95;4.15;;;13.30;48.50;;;;;;6106930;29;20115;-73
2023/01/10 19:12:11;;;;;;;28.45;5.38;;;13.30;48.40;;;;;;6099793;29;20040;-76
2023/01/10 19:15:12;;;;;;;13.93;5.78;;;13.20;48.40;;;;;;6116964;29;20043;-75
2023/01/10 19:18:16;;;;;;;17.20;4.70;;;13.30;48.50;;;;;;6096354;29;20322;-76
2023/01/10 19:21:17;;;;;;;7.88;3.92;;;13.20;48.50;;;;;;6114316;29;20050;-76
2023/01/10 19:24:26;;;;;;;10.18;3.80;;;13.20;48.50;;;;;;6108312;29;20377;-76
2023/01/10 19:27:27;;;;;;;8.65;3.90;;;13.20;49.30;;;;;;6088462;29;20126;-78
2023/01/10 19:30:28;;;;;;;11.13;3.50;;;13.20;49.00;;;;;;6104368;29;20047;-75
2023/01/10 19:33:29;;;;;;;7.30;3.42;;;13.20;49.10;;;;;;6121526;29;20040;-76
2023/01/10 19:36:33;;;;;;;8.40;3.67;;;13.10;49.20;;;;;;6104310;29;20044;-76
2023/01/10 19:39:35;;;;;;;13.60;4.85;;;13.20;49.40;;;;;;6087892;29;20054;-75
2023/01/10 19:42:36;;;;;;;19.52;6.10;;;13.10;49.40;;;;;;6114962;29;20063;-75
2023/01/10 19:45:40;;;;;;;17.02;5.78;;;13.10;49.60;;;;;;6114393;29;20058;-76
2023/01/10 19:48:41;;;;;;;11.73;3.50;;;13.10;49.80;;;;;;6120255;29;20523;-76
2023/01/10 19:51:49;;;;;;;7.40;3.20;;;13.00;49.80;;;;;;6112360;29;20079;-76
2023/01/10 19:54:50;;;;;;;13.40;4.20;;;13.00;49.90;;;;;;6088881;29;20435;-78
2023/01/10 19:57:51;;;;;;;5.90;2.85;;;13.00;50.00;;;;;;6095192;29;20055;-76
2023/01/10 20:00:52;;;;;;;9.40;4.00;;;12.90;49.90;;;;;;6109014;29;20361;-77
2023/01/10 20:03:56;;;;;;;4.88;2.90;;;12.90;50.00;;;;;;6106939;29;20058;-76
2023/01/10 20:06:57;;;;;;;9.07;3.80;;;12.90;50.10;;;;;;6115900;29;20112;-77
2023/01/10 20:09:58;;;;;;;9.52;3.58;;;12.80;50.20;;;;;;6096201;29;20338;-77
2023/01/10 20:12:59;;;;;;;17.77;4.47;;;12.80;50.30;;;;;;6125535;29;20054;-76
2023/01/10 20:16:00;;;;;;;8.70;3.15;;;12.70;50.20;;;;;;6117126;29;20337;-76
2023/01/10 20:19:01;;;;;;;9.93;4.03;;;12.70;50.10;;;;;;6098575;29;20218;-76
2023/01/10 20:22:02;;;;;;;6.85;3.67;;;12.70;50.10;;;;;;6086036;29;20124;-75
2023/01/10 20:25:03;;;;;;;15.60;4.10;;;12.70;50.20;;;;;;6101904;29;20056;-75
2023/01/10 20:28:04;;;;;;;10.15;3.83;;;12.60;50.20;;;;;;6083757;29;20508;-76
2023/01/10 20:31:07;;;;;;;6.53;3.65;;;12.60;50.30;;;;;;6082152;29;20080;-76
2023/01/10 20:34:08;;;;;;;7.28;3.53;;;12.60;50.40;;;;;;6079918;29;20043;-77
2023/01/10 20:37:09;;;;;;;8.23;3.78;;;12.60;50.50;;;;;;6098882;29;20103;-76
2023/01/10 20:40:11;;;;;;;8.32;3.20;;;12.60;50.60;;;;;;6086934;29;20063;-79
2023/01/10 20:43:13;;;;;;;8.27;3.58;;;12.60;50.70;;;;;;6098610;29;20059;-75
2023/01/10 20:46:20;;;;;;;10.00;3.72;;;12.50;50.80;;;;;;6082633;29;20413;-75
2023/01/10 20:49:21;;;;;;;10.48;3.53;;;12.40;51.10;;;;;;6108525;29;20534;-72
2023/01/10 20:52:22;;;;;;;9.18;4.07;;;12.40;51.30;;;;;;6103550;29;20043;-73
2023/01/10 20:55:23;;;;;;;9.90;4.50;;;12.40;51.50;;;;;;6091321;29;20674;-73
2023/01/10 20:58:24;;;;;;;7.85;3.58;;;12.30;51.70;;;;;;6121539;29;20047;-74
2023/01/10 21:01:27;;;;;;;7.63;3.60;;;12.30;51.70;;;;;;6113641;29;20370;-74
2023/01/10 21:04:28;;;;;;;7.38;3.78;;;12.30;51.80;;;;;;6120477;29;20040;-74
2023/01/10 21:07:29;;;;;;;6.93;3.85;;;12.30;51.80;;;;;;6112985;29;20024;-74
2023/01/10 21:10:30;;;;;;;8.63;3.60;;;12.30;51.90;;;;;;6098630;29;20048;-73
2023/01/10 21:13:32;;;;;;;13.65;3.78;;;12.20;52.00;;;;;;6100411;29;20035;-71
2023/01/10 21:16:33;;;;;;;7.43;3.60;;;12.20;52.10;;;;;;6105461;29;20282;-72
2023/01/10 21:19:34;;;;;;;7.82;3.38;;;12.20;52.30;;;;;;6069995;29;20388;-73
2023/01/10 21:22:35;;;;;;;16.70;3.70;;;12.20;52.40;;;;;;6097504;29;20130;-72
2023/01/10 21:25:36;;;;;;;6.97;3.20;;;12.20;52.50;;;;;;6092196;29;20047;-72
2023/01/10 21:28:41;;;;;;;5.57;3.10;;;12.10;52.50;;;;;;6062433;29;20433;-73
2023/01/10 21:31:41;;;;;;;11.35;3.90;;;12.10;52.60;;;;;;6097665;29;20043;-74
2023/01/10 21:34:42;;;;;;;11.68;5.10;;;12.10;52.60;;;;;;6078908;29;20063;-74
2023/01/10 21:37:43;;;;;;;10.18;4.00;;;12.10;52.70;;;;;;6079035;29;20447;-74
2023/01/10 21:40:44;;;;;;;9.98;4.38;;;12.00;52.70;;;;;;6074495;29;20132;-75
2023/01/10 21:43:45;;;;;;;8.70;3.80;;;12.00;52.80;;;;;;6058084;29;20381;-75
2023/01/10 21:46:47;;;;;;;13.88;4.30;;;12.00;52.90;;;;;;6071172;29;20626;-74
2023/01/10 21:49:48;;;;;;;10.48;3.85;;;12.00;52.90;;;;;;6053423;29;20369;-74
2023/01/10 21:52:49;;;;;;;15.43;4.03;;;12.00;52.90;;;;;;6066149;29;20052;-75
2023/01/10 21:55:50;;;;;;;12.55;4.20;;;12.00;53.00;;;;;;6079208;29;20048;-74
2023/01/10 21:58:51;;;;;;;12.27;4.40;;;12.00;53.00;;;;;;6092158;29;20040;-75
2023/01/10 22:01:52;;;;;;;16.52;4.25;;;11.90;53.10;;;;;;6066766;29;20059;-74
2023/01/10 22:04:54;;;;;;;15.02;4.97;;;11.90;53.10;;;;;;6096996;29;20048;-75
2023/01/10 22:07:56;;;;;;;12.77;5.28;;;11.90;53.10;;;;;;6078561;29;20442;-74
2023/01/10 22:10:57;;;;;;;11.02;3.85;;;11.90;53.10;;;;;;6093354;29;20060;-75
2023/01/10 22:13:58;;;;;;;11.43;4.60;;;11.80;53.20;;;;;;6079046;29;20062;-73
2023/01/10 22:16:59;;;;;;;15.57;5.25;;;11.90;53.30;;;;;;6082944;29;20052;-74
2023/01/10 22:20:00;;;;;;;9.07;3.88;;;11.90;53.30;;;;;;6090128;29;20071;-75
2023/01/10 22:23:01;;;;;;;11.48;4.80;;;11.80;53.40;;;;;;6093817;29;20058;-74
2023/01/10 22:26:04;;;;;;;12.32;4.15;;;11.90;53.40;;;;;;6060383;29;20048;-74
2023/01/10 22:29:05;;;;;;;9.07;3.97;;;11.90;53.40;;;;;;6095092;29;20051;-78
2023/01/10 22:32:06;;;;;;;8.73;3.83;;;11.90;53.30;;;;;;6094716;29;20512;-77
2023/01/10 22:35:12;;;;;;;18.73;3.70;;;11.90;53.20;;;;;;6075377;29;20087;-72
2023/01/10 22:38:13;;;;;;;6.78;2.85;;;12.00;53.10;;;;;;6095363;29;20044;-73
2023/01/10 22:41:19;;;;;;;8.63;3.22;;;12.00;52.80;;;;;;6058626;29;20213;-73
2023/01/10 22:44:24;;;;;;;6.88;2.78;;;12.00;52.50;;;;;;6076446;29;20067;-74
2023/01/10 22:47:25;;;;;;;7.22;3.25;;;11.90;52.30;;;;;;6098213;29;20057;-73
2023/01/10 22:50:26;;;;;;;6.50;2.53;;;11.90;52.10;;;;;;6091455;29;20041;-73
2023/01/10 22:53:27;;;;;;;8.25;2.38;;;11.90;52.10;;;;;;6094963;29;20047;-73
2023/01/10 22:56:29;;;;;;;11.82;2.20;;;11.90;52.00;;;;;;6079655;29;20036;-73
2023/01/10 22:59:32;;;;;;;5.13;1.90;;;11.80;51.60;;;;;;6079903;29;20048;-74
2023/01/10 23:02:33;;;;;;;5.20;2.30;;;11.70;51.50;;;;;;6097641;29;20048;-75
2023/01/10 23:05:33;;;;;;;6.13;2.40;;;11.70;51.50;;;;;;6085509;29;20052;-74
2023/01/10 23:08:35;;;;;;;4.63;2.70;;;11.70;51.50;;;;;;6066544;29;20047;-74
2023/01/10 23:11:35;;;;;;;6.10;2.45;;;11.60;51.50;;;;;;6083062;29;20047;-75
2023/01/10 23:14:36;;;;;;;11.15;2.47;;;11.60;51.70;;;;;;6089314;29;20638;-74
2023/01/10 23:17:37;;;;;;;9.93;3.40;;;11.50;52.00;;;;;;6081797;29;20472;-74
2023/01/10 23:20:38;;;;;;;10.95;3.65;;;11.50;52.20;;;;;;6084997;29;20055;-75
2023/01/10 23:23:39;;;;;;;9.77;2.92;;;11.40;52.40;;;;;;6100981;29;20040;-74
2023/01/10 23:26:40;;;;;;;7.63;2.90;;;11.40;52.70;;;;;;6098305;29;20039;-72
2023/01/10 23:29:40;;;;;;;10.98;3.72;;;11.30;53.00;;;;;;6097984;29;20039;-73
2023/01/10 23:32:41;;;;;;;10.13;3.42;;;11.20;53.20;;;;;;6091644;29;20095;-73
2023/01/10 23:35:42;;;;;;;11.27;3.78;;;11.20;53.40;;;;;;6080220;29;20051;-73
2023/01/10 23:38:43;;;;;;;5.70;2.95;;;11.20;53.50;;;;;;6116182;29;20757;-73
2023/01/10 23:41:44;;;;;;;10.18;3.95;;;11.10;53.50;;;;;;6101686;29;20059;-73
2023/01/10 23:44:45;;;;;;;9.88;3.20;;;11.10;53.60;;;;;;6101446;29;20063;-73
2023/01/10 23:47:46;;;;;;;10.05;3.13;;;11.10;53.60;;;;;;6099967;29;20542;-73
2023/01/10 23:50:48;;;;;;;9.50;3.70;;;11.10;54.30;;;;;;6083146;29;20044;-73
2023/01/10 23:53:49;;;;;;;6.07;3.00;;;11.00;53.80;;;;;;6068823;29;20053;-73
2023/01/10 23:56:51;;;;;;;6.60;3.25;;;11.00;53.90;;;;;;6063789;29;20040;-73
2023/01/10 23:59:52;;;;;;;8.32;3.38;;;10.90;54.00;;;;;;6077752;29;20469;-75
